createdAt,value
2022-12-03T00:02:10.990Z,2.40
2022-12-03T00:04:37.653Z,2.50
2022-12-03T00:07:04.413Z,2.50
2022-12-03T00:09:30.975Z,2.50
2022-12-03T00:11:57.565Z,2.50
2022-12-03T00:14:24.227Z,2.60
2022-12-03T00:16:50.838Z,2.60
2022-12-03T00:19:17.536Z,2.60
2022-12-03T00:21:44.102Z,2.60
2022-12-03T00:24:10.715Z,2.60
2022-12-03T00:26:37.317Z,2.60
2022-12-03T00:29:04.171Z,2.60
2022-12-03T00:31:30.858Z,2.60
2022-12-03T00:33:57.459Z,2.60
2022-12-03T00:36:24.040Z,2.60
2022-12-03T00:38:50.746Z,2.60
2022-12-03T00:41:17.337Z,2.60
2022-12-03T00:43:43.963Z,2.60
2022-12-03T00:46:10.633Z,2.60
2022-12-03T00:48:37.292Z,2.60
2022-12-03T00:51:04.050Z,2.60
2022-12-03T00:53:30.647Z,2.50
2022-12-03T00:55:57.260Z,2.50
2022-12-03T00:58:23.991Z,2.50
2022-12-03T01:00:50.580Z,2.40
2022-12-03T01:03:17.139Z,2.40
2022-12-03T01:05:43.719Z,2.50
2022-12-03T01:08:10.461Z,2.50
2022-12-03T01:10:37.385Z,2.40
2022-12-03T01:13:03.967Z,2.50
2022-12-03T01:15:30.718Z,2.40
2022-12-03T01:17:57.360Z,2.40
2022-12-03T01:20:24.031Z,2.40
2022-12-03T01:22:50.707Z,2.50
2022-12-03T01:25:17.450Z,2.40
2022-12-03T01:27:44.101Z,2.40
2022-12-03T01:30:13.203Z,2.40
2022-12-03T01:32:39.774Z,2.40
2022-12-03T01:35:06.925Z,2.40
2022-12-03T01:37:33.561Z,2.30
2022-12-03T01:40:00.170Z,2.30
2022-12-03T01:42:34.940Z,2.30
2022-12-03T01:45:02.310Z,2.20
2022-12-03T01:47:34.587Z,2.30
2022-12-03T01:50:27.142Z,2.20
2022-12-03T01:52:55.735Z,2.30
2022-12-03T01:55:25.063Z,2.30
2022-12-03T01:57:55.433Z,2.20
2022-12-03T02:00:24.088Z,2.30
2022-12-03T02:02:54.969Z,2.20
2022-12-03T02:05:27.189Z,2.20
2022-12-03T02:07:54.375Z,2.20
2022-12-03T02:10:27.970Z,2.20
2022-12-03T02:13:07.606Z,2.10
2022-12-03T02:15:35.068Z,2.00
2022-12-03T02:18:02.354Z,2.10
2022-12-03T02:20:31.245Z,2.00
2022-12-03T02:22:57.761Z,2.00
2022-12-03T02:25:33.569Z,2.00
2022-12-03T02:28:01.689Z,2.10
2022-12-03T02:30:30.108Z,2.00
2022-12-03T02:32:57.788Z,2.00
2022-12-03T02:35:27.085Z,2.00
2022-12-03T02:38:25.009Z,2.10
2022-12-03T02:40:55.842Z,2.00
2022-12-03T02:43:23.286Z,2.10
2022-12-03T02:45:53.483Z,2.10
2022-12-03T02:48:27.647Z,2.00
2022-12-03T02:50:57.456Z,2.00
2022-12-03T02:53:28.256Z,2.10
2022-12-03T02:55:58.439Z,2.10
2022-12-03T02:58:25.982Z,2.10
2022-12-03T03:00:54.700Z,2.10
2022-12-03T03:03:22.919Z,2.20
2022-12-03T03:05:50.714Z,2.20
2022-12-03T03:08:18.558Z,2.20
2022-12-03T03:10:47.388Z,2.10
2022-12-03T03:13:17.501Z,2.10
2022-12-03T03:15:44.820Z,2.10
2022-12-03T03:18:12.941Z,2.10
2022-12-03T03:20:40.998Z,2.10
2022-12-03T03:23:18.812Z,2.10
2022-12-03T03:25:49.507Z,2.10
2022-12-03T03:28:16.974Z,2.00
2022-12-03T03:30:44.273Z,2.10
2022-12-03T03:33:13.081Z,2.10
2022-12-03T03:35:40.049Z,2.10
2022-12-03T03:38:08.468Z,2.20
2022-12-03T03:40:35.278Z,2.20
2022-12-03T03:43:02.299Z,2.20
2022-12-03T03:45:29.731Z,2.30
2022-12-03T03:47:58.071Z,2.30
2022-12-03T03:50:25.553Z,2.30
2022-12-03T03:52:52.672Z,2.30
2022-12-03T03:55:20.339Z,2.30
2022-12-03T03:57:47.647Z,2.30
2022-12-03T04:00:14.610Z,2.40
2022-12-03T04:02:41.569Z,2.40
2022-12-03T04:05:19.080Z,2.40
2022-12-03T04:07:46.114Z,2.30
2022-12-03T04:10:32.253Z,2.20
2022-12-03T04:12:59.546Z,2.10
2022-12-03T04:15:26.542Z,2.10
2022-12-03T04:18:12.070Z,2.10
2022-12-03T04:20:38.844Z,2.10
2022-12-03T04:23:05.714Z,2.10
2022-12-03T04:25:51.233Z,2.10
2022-12-03T04:28:53.263Z,2.10
2022-12-03T04:31:38.574Z,2.10
2022-12-03T04:34:25.422Z,2.00
2022-12-03T04:36:52.022Z,1.90
2022-12-03T04:39:18.900Z,1.90
2022-12-03T04:41:45.535Z,1.80
2022-12-03T04:44:30.791Z,1.80
2022-12-03T04:46:57.376Z,1.90
2022-12-03T04:49:24.130Z,1.90
2022-12-03T04:51:50.713Z,1.90
2022-12-03T04:54:17.400Z,1.90
2022-12-03T04:56:44.261Z,1.90
2022-12-03T04:59:15.763Z,1.90
2022-12-03T05:01:43.776Z,1.90
2022-12-03T05:04:10.888Z,1.80
2022-12-03T05:06:37.680Z,1.80
2022-12-03T05:09:05.091Z,1.70
2022-12-03T05:11:31.738Z,1.80
2022-12-03T05:13:58.338Z,1.70
2022-12-03T05:16:25.116Z,1.90
2022-12-03T05:18:51.784Z,1.90
2022-12-03T05:21:18.575Z,1.90
2022-12-03T05:23:45.221Z,2.00
2022-12-03T05:26:11.857Z,2.00
2022-12-03T05:28:38.447Z,2.10
2022-12-03T05:31:06.334Z,2.10
2022-12-03T05:33:33.146Z,2.10
2022-12-03T05:35:59.959Z,2.10
2022-12-03T05:38:26.734Z,2.10
2022-12-03T05:40:53.366Z,2.10
2022-12-03T05:43:19.955Z,2.10
2022-12-03T05:45:46.749Z,2.10
2022-12-03T05:48:16.001Z,2.10
2022-12-03T05:50:44.588Z,2.10
2022-12-03T05:53:12.343Z,2.00
2022-12-03T05:55:39.241Z,2.00
2022-12-03T05:58:06.086Z,2.00
2022-12-03T06:00:42.485Z,2.00
2022-12-03T06:03:10.166Z,2.10
2022-12-03T06:05:36.990Z,2.10
2022-12-03T06:08:03.815Z,2.10
2022-12-03T06:10:30.972Z,2.10
2022-12-03T06:12:57.617Z,2.20
2022-12-03T06:15:24.281Z,2.20
2022-12-03T06:17:50.921Z,2.30
2022-12-03T06:20:19.656Z,2.30
2022-12-03T06:22:46.761Z,2.40
2022-12-03T06:25:14.949Z,2.40
2022-12-03T06:27:41.609Z,2.40
2022-12-03T06:30:08.964Z,2.40
2022-12-03T06:32:35.666Z,2.40
2022-12-03T06:35:02.296Z,2.30
2022-12-03T06:37:28.940Z,2.30
2022-12-03T06:39:55.519Z,2.30
2022-12-03T06:42:22.439Z,2.30
2022-12-03T06:44:49.009Z,2.40
2022-12-03T06:47:15.580Z,2.40
2022-12-03T06:49:42.167Z,2.40
2022-12-03T06:52:08.751Z,2.50
2022-12-03T06:54:35.425Z,2.40
2022-12-03T06:57:02.086Z,2.50
2022-12-03T06:59:43.713Z,2.50
2022-12-03T07:02:12.413Z,2.60
2022-12-03T07:04:43.317Z,2.60
2022-12-03T07:07:12.613Z,2.60
2022-12-03T07:09:39.435Z,2.60
2022-12-03T07:12:06.362Z,2.60
2022-12-03T07:14:32.964Z,2.60
2022-12-03T07:16:59.537Z,2.60
2022-12-03T07:19:32.092Z,2.60
2022-12-03T07:21:59.310Z,2.60
2022-12-03T07:24:25.898Z,2.60
2022-12-03T07:26:52.478Z,2.70
2022-12-03T07:29:19.168Z,2.70
2022-12-03T07:31:46.147Z,2.70
2022-12-03T07:34:12.994Z,2.70
2022-12-03T07:36:39.678Z,2.70
2022-12-03T07:39:06.303Z,2.80
2022-12-03T07:41:32.886Z,2.80
2022-12-03T07:43:59.502Z,2.70
2022-12-03T07:46:26.182Z,2.80
2022-12-03T07:48:52.946Z,2.90
2022-12-03T07:51:19.725Z,2.80
2022-12-03T07:53:46.585Z,2.80
2022-12-03T07:56:13.332Z,2.80
2022-12-03T07:58:39.920Z,2.80
2022-12-03T08:01:06.631Z,2.80
2022-12-03T08:03:33.313Z,2.90
2022-12-03T08:05:59.870Z,3.00
2022-12-03T08:08:26.441Z,3.00
2022-12-03T08:10:53.061Z,3.00
2022-12-03T08:13:19.987Z,3.00
2022-12-03T08:15:46.940Z,3.10
2022-12-03T08:18:20.549Z,3.00
2022-12-03T08:20:49.297Z,3.00
2022-12-03T08:23:19.456Z,3.10
2022-12-03T08:25:46.635Z,3.10
2022-12-03T08:28:23.154Z,3.10
2022-12-03T08:30:59.048Z,3.10
2022-12-03T08:33:35.103Z,3.10
2022-12-03T08:36:32.767Z,3.10
2022-12-03T08:39:05.182Z,3.10
2022-12-03T08:41:50.639Z,3.10
2022-12-03T08:44:37.429Z,3.10
2022-12-03T08:47:10.101Z,3.00
2022-12-03T08:49:39.377Z,3.10
2022-12-03T08:52:17.752Z,3.20
2022-12-03T08:54:53.872Z,3.20
2022-12-03T08:57:28.094Z,3.20
2022-12-03T08:59:58.698Z,3.30
2022-12-03T09:02:34.094Z,3.30
2022-12-03T09:05:29.210Z,3.40
2022-12-03T09:07:55.862Z,3.40
2022-12-03T09:10:22.486Z,3.40
2022-12-03T09:12:49.086Z,3.40
2022-12-03T09:15:15.805Z,3.40
2022-12-03T09:17:42.418Z,3.40
2022-12-03T09:20:09.687Z,3.50
2022-12-03T09:22:36.491Z,3.50
2022-12-03T09:25:03.259Z,3.50
2022-12-03T09:27:29.890Z,3.40
2022-12-03T09:29:56.526Z,3.50
2022-12-03T09:32:23.334Z,3.50
2022-12-03T09:34:50.053Z,3.50
2022-12-03T09:37:16.720Z,3.50
2022-12-03T09:39:43.695Z,3.50
2022-12-03T09:42:11.196Z,3.60
2022-12-03T09:44:38.400Z,3.60
2022-12-03T09:47:05.952Z,3.60
2022-12-03T09:49:35.325Z,3.60
2022-12-03T09:52:03.817Z,3.60
2022-12-03T09:54:32.250Z,3.60
2022-12-03T09:57:02.510Z,3.60
2022-12-03T09:59:32.722Z,3.70
2022-12-03T10:02:00.285Z,3.70
2022-12-03T10:04:30.380Z,3.70
2022-12-03T10:06:58.298Z,3.80
2022-12-03T10:09:27.724Z,3.70
2022-12-03T10:11:59.310Z,3.70
2022-12-03T10:14:26.818Z,3.70
2022-12-03T10:16:53.517Z,3.80
2022-12-03T10:19:27.542Z,3.70
2022-12-03T10:21:55.512Z,3.70
2022-12-03T10:24:30.846Z,3.70
2022-12-03T10:27:00.400Z,3.70
2022-12-03T10:29:35.397Z,3.70
2022-12-03T10:32:03.846Z,3.80
2022-12-03T10:34:36.405Z,3.70
2022-12-03T10:37:10.588Z,3.80
2022-12-03T10:39:56.549Z,3.80
2022-12-03T10:42:24.614Z,3.70
2022-12-03T10:45:08.207Z,3.80
2022-12-03T10:47:34.952Z,3.70
2022-12-03T10:50:05.203Z,3.70
2022-12-03T10:52:32.550Z,3.70
2022-12-03T10:54:59.206Z,3.70
2022-12-03T10:57:26.328Z,3.70
2022-12-03T10:59:52.953Z,3.80
2022-12-03T11:02:24.183Z,3.80
2022-12-03T11:04:52.320Z,3.80
2022-12-03T11:07:21.544Z,3.80
2022-12-03T11:09:50.989Z,3.80
2022-12-03T11:12:21.255Z,3.80
2022-12-03T11:14:51.565Z,3.90
2022-12-03T11:17:48.455Z,3.80
2022-12-03T11:20:23.904Z,3.80
2022-12-03T11:22:57.959Z,3.80
2022-12-03T11:25:27.340Z,3.80
2022-12-03T11:28:33.346Z,3.80
2022-12-03T11:31:09.608Z,3.90
2022-12-03T11:33:39.099Z,3.90
2022-12-03T11:36:05.950Z,3.90
2022-12-03T11:38:38.384Z,3.90
2022-12-03T11:41:17.862Z,3.80
2022-12-03T11:43:56.338Z,3.80
2022-12-03T11:46:30.847Z,3.80
2022-12-03T11:48:59.798Z,3.80
2022-12-03T11:51:29.193Z,3.70
2022-12-03T11:53:58.421Z,4.00
2022-12-03T11:56:28.181Z,3.90
2022-12-03T11:59:00.101Z,3.90
2022-12-03T12:01:53.241Z,3.80
2022-12-03T12:04:30.508Z,3.90
2022-12-03T12:06:57.257Z,3.90
2022-12-03T12:09:55.477Z,3.70
2022-12-03T12:12:38.811Z,3.70
2022-12-03T12:15:35.068Z,3.80
2022-12-03T12:18:39.186Z,3.80
2022-12-03T12:21:44.088Z,3.70
2022-12-03T12:24:42.996Z,3.80
2022-12-03T12:27:14.005Z,3.80
2022-12-03T12:29:42.538Z,3.70
2022-12-03T12:32:09.218Z,3.70
2022-12-03T12:34:47.126Z,3.80
2022-12-03T12:37:21.147Z,3.80
2022-12-03T12:39:48.781Z,3.80
2022-12-03T12:42:24.077Z,3.70
2022-12-03T12:44:51.670Z,3.70
2022-12-03T12:47:19.163Z,3.80
2022-12-03T12:49:51.491Z,3.90
2022-12-03T12:52:18.687Z,4.30
2022-12-03T12:54:46.434Z,4.30
2022-12-03T12:57:16.846Z,4.30
2022-12-03T12:59:43.544Z,4.20
2022-12-03T13:02:36.648Z,4.30
2022-12-03T13:05:04.662Z,4.10
2022-12-03T13:07:32.169Z,4.00
2022-12-03T13:10:00.741Z,4.10
2022-12-03T13:12:27.344Z,4.00
2022-12-03T13:14:58.163Z,3.90
2022-12-03T13:17:26.026Z,3.90
2022-12-03T13:20:03.708Z,3.90
2022-12-03T13:22:34.021Z,3.90
2022-12-03T13:25:38.306Z,3.80
2022-12-03T13:28:10.045Z,3.80
2022-12-03T13:30:36.632Z,3.80
2022-12-03T13:33:15.971Z,3.80
2022-12-03T13:35:43.194Z,3.80
2022-12-03T13:38:15.302Z,3.80
2022-12-03T13:40:42.183Z,3.80
2022-12-03T13:43:18.627Z,3.80
2022-12-03T13:45:48.800Z,3.80
2022-12-03T13:48:23.036Z,3.90
2022-12-03T13:50:53.778Z,3.90
2022-12-03T13:53:35.341Z,3.90
2022-12-03T13:56:23.756Z,3.80
2022-12-03T13:58:50.332Z,3.80
2022-12-03T14:01:17.247Z,3.70
2022-12-03T14:03:43.993Z,3.80
2022-12-03T14:06:10.595Z,3.70
2022-12-03T14:08:37.436Z,3.70
2022-12-03T14:11:04.202Z,3.80
2022-12-03T14:13:30.898Z,3.80
2022-12-03T14:15:57.614Z,3.70
2022-12-03T14:18:24.337Z,3.70
2022-12-03T14:20:51.079Z,3.70
2022-12-03T14:23:17.797Z,3.70
2022-12-03T14:25:44.473Z,3.70
2022-12-03T14:28:11.106Z,3.70
2022-12-03T14:30:37.899Z,3.70
2022-12-03T14:33:04.700Z,3.70
2022-12-03T14:35:31.356Z,3.70
2022-12-03T14:37:57.942Z,3.70
2022-12-03T14:40:24.530Z,3.60
2022-12-03T14:42:51.158Z,3.60
2022-12-03T14:45:17.791Z,3.60
2022-12-03T14:47:44.703Z,3.60
2022-12-03T14:50:14.399Z,3.60
2022-12-03T14:52:41.291Z,3.60
2022-12-03T14:55:08.335Z,3.60
2022-12-03T14:57:34.886Z,3.70
2022-12-03T15:00:01.529Z,3.70
2022-12-03T15:02:28.778Z,3.60
2022-12-03T15:04:55.898Z,3.60
2022-12-03T15:07:22.466Z,3.70
2022-12-03T15:09:49.328Z,3.60
2022-12-03T15:12:16.060Z,3.60
2022-12-03T15:14:42.798Z,3.60
2022-12-03T15:17:09.509Z,3.70
2022-12-03T15:19:36.196Z,3.60
2022-12-03T15:22:02.844Z,3.60
2022-12-03T15:24:29.460Z,3.60
2022-12-03T15:26:56.741Z,3.60
2022-12-03T15:29:23.535Z,3.60
2022-12-03T15:31:50.187Z,3.60
2022-12-03T15:34:22.048Z,3.60
2022-12-03T15:36:49.601Z,3.60
2022-12-03T15:39:16.408Z,3.60
2022-12-03T15:41:42.979Z,3.60
2022-12-03T15:44:09.626Z,3.50
2022-12-03T15:46:36.344Z,3.50
2022-12-03T15:49:03.454Z,3.50
2022-12-03T15:51:30.387Z,3.50
2022-12-03T15:53:56.952Z,3.40
2022-12-03T15:56:23.604Z,3.40
2022-12-03T15:58:50.169Z,3.40
2022-12-03T16:01:18.111Z,3.50
2022-12-03T16:03:45.409Z,3.50
2022-12-03T16:06:12.598Z,3.50
2022-12-03T16:08:39.165Z,3.40
2022-12-03T16:11:05.887Z,3.50
2022-12-03T16:13:32.436Z,3.50
2022-12-03T16:15:59.193Z,3.50
2022-12-03T16:18:25.815Z,3.40
2022-12-03T16:20:52.513Z,3.50
2022-12-03T16:23:19.167Z,3.50
2022-12-03T16:25:45.826Z,3.40
2022-12-03T16:28:12.425Z,3.40
2022-12-03T16:30:39.099Z,3.40
2022-12-03T16:33:05.773Z,3.40
2022-12-03T16:35:32.420Z,3.40
2022-12-03T16:37:59.005Z,3.40
2022-12-03T16:40:25.790Z,3.40
2022-12-03T16:42:52.474Z,3.50
2022-12-03T16:45:32.964Z,3.50
2022-12-03T16:48:00.783Z,3.50
2022-12-03T16:50:29.831Z,3.50
2022-12-03T16:52:57.403Z,3.40
2022-12-03T16:55:24.164Z,3.40
2022-12-03T16:57:50.774Z,3.40
2022-12-03T17:00:17.736Z,3.40
2022-12-03T17:02:44.455Z,3.50
2022-12-03T17:05:11.227Z,3.60
2022-12-03T17:07:37.910Z,3.50
2022-12-03T17:10:05.274Z,3.50
2022-12-03T17:12:54.074Z,3.40
2022-12-03T17:15:18.525Z,3.40
2022-12-03T17:17:45.132Z,3.50
2022-12-03T17:20:13.227Z,3.50
2022-12-03T17:22:40.312Z,3.40
2022-12-03T17:25:07.551Z,3.40
2022-12-03T17:27:34.779Z,3.40
2022-12-03T17:30:01.509Z,3.40
2022-12-03T17:32:28.110Z,3.50
2022-12-03T17:34:54.719Z,3.50
2022-12-03T17:37:21.352Z,3.50
2022-12-03T17:39:47.946Z,3.50
2022-12-03T17:42:14.886Z,3.40
2022-12-03T17:44:41.520Z,3.50
2022-12-03T17:47:08.110Z,3.60
2022-12-03T17:49:34.805Z,3.60
2022-12-03T17:52:01.490Z,3.60
2022-12-03T17:54:43.483Z,3.50
2022-12-03T17:57:14.814Z,3.50
2022-12-03T17:59:41.450Z,3.50
2022-12-03T18:02:08.068Z,3.60
2022-12-03T18:04:34.862Z,3.50
2022-12-03T18:07:02.664Z,3.50
2022-12-03T18:09:29.424Z,3.50
2022-12-03T18:11:56.098Z,3.50
2022-12-03T18:14:22.814Z,3.50
2022-12-03T18:16:49.469Z,3.60
2022-12-03T18:19:16.416Z,3.60
2022-12-03T18:21:43.057Z,3.70
2022-12-03T18:24:10.082Z,3.70
2022-12-03T18:26:36.710Z,3.70
2022-12-03T18:29:03.809Z,3.70
2022-12-03T18:31:30.459Z,3.70
2022-12-03T18:33:57.119Z,3.60
2022-12-03T18:36:26.114Z,3.60
2022-12-03T18:38:55.291Z,3.60
2022-12-03T18:41:23.629Z,3.60
2022-12-03T18:43:50.952Z,3.70
2022-12-03T18:46:45.051Z,3.60
2022-12-03T18:49:05.877Z,3.60
2022-12-03T18:51:32.502Z,3.60
2022-12-03T18:53:59.069Z,3.70
2022-12-03T18:56:25.920Z,3.70
2022-12-03T18:58:52.526Z,3.60
2022-12-03T19:01:22.934Z,3.60
2022-12-03T19:03:50.104Z,3.70
2022-12-03T19:06:20.307Z,3.70
2022-12-03T19:08:49.217Z,3.60
2022-12-03T19:11:15.855Z,3.60
2022-12-03T19:13:42.749Z,3.70
2022-12-03T19:16:10.316Z,3.60
2022-12-03T19:18:37.006Z,3.60
2022-12-03T19:21:15.436Z,3.60
2022-12-03T19:23:47.287Z,3.60
2022-12-03T19:26:25.633Z,3.60
2022-12-03T19:28:53.788Z,3.60
2022-12-03T19:31:20.972Z,3.60
2022-12-03T19:33:48.027Z,3.60
2022-12-03T19:36:24.703Z,3.50
2022-12-03T19:38:56.843Z,3.50
2022-12-03T19:41:30.417Z,3.50
2022-12-03T19:43:58.114Z,3.50
2022-12-03T19:46:31.093Z,3.60
2022-12-03T19:48:57.795Z,3.60
2022-12-03T19:51:34.775Z,3.50
2022-12-03T19:54:05.483Z,3.50
2022-12-03T19:56:32.443Z,3.60
2022-12-03T19:58:59.399Z,3.60
2022-12-03T20:01:38.113Z,3.50
2022-12-03T20:04:04.852Z,3.50
2022-12-03T20:06:34.291Z,3.60
2022-12-03T20:09:05.202Z,3.60
2022-12-03T20:11:33.883Z,3.60
2022-12-03T20:14:10.334Z,3.60
2022-12-03T20:16:37.247Z,3.60
2022-12-03T20:19:06.359Z,3.70
2022-12-03T20:21:35.813Z,3.70
2022-12-03T20:24:02.666Z,3.80
2022-12-03T20:26:29.715Z,3.80
2022-12-03T20:28:57.312Z,3.80
2022-12-03T20:31:27.311Z,3.80
2022-12-03T20:33:56.831Z,3.80
2022-12-03T20:36:24.063Z,3.80
2022-12-03T20:38:55.641Z,3.80
2022-12-03T20:41:23.055Z,3.70
2022-12-03T20:43:50.242Z,3.70
2022-12-03T20:46:22.603Z,3.80
2022-12-03T20:48:49.201Z,3.80
2022-12-03T20:51:18.540Z,3.70
2022-12-03T20:53:45.799Z,3.80
2022-12-03T20:56:20.273Z,3.80
2022-12-03T20:58:48.903Z,3.80
2022-12-03T21:01:21.126Z,3.80
2022-12-03T21:03:49.329Z,3.80
2022-12-03T21:06:16.816Z,3.70
2022-12-03T21:08:43.887Z,3.70
2022-12-03T21:11:13.486Z,3.70
2022-12-03T21:13:41.609Z,3.80
2022-12-03T21:16:10.512Z,3.80
2022-12-03T21:18:37.641Z,3.90
2022-12-03T21:21:05.409Z,4.00
2022-12-03T21:23:33.388Z,4.00
2022-12-03T21:26:14.749Z,4.00
2022-12-03T21:28:43.514Z,4.10
2022-12-03T21:31:13.892Z,4.10
2022-12-03T21:33:41.686Z,4.20
2022-12-03T21:36:09.118Z,4.20
2022-12-03T21:38:36.505Z,4.20
2022-12-03T21:41:04.359Z,4.20
2022-12-03T21:43:32.328Z,4.20
2022-12-03T21:45:59.113Z,4.30
2022-12-03T21:48:25.969Z,4.30
2022-12-03T21:51:00.940Z,4.30
2022-12-03T21:53:28.496Z,4.40
2022-12-03T21:55:55.382Z,4.30
2022-12-03T21:58:21.986Z,4.30
2022-12-03T22:00:48.562Z,4.30
2022-12-03T22:03:15.218Z,4.40
2022-12-03T22:05:41.979Z,4.40
2022-12-03T22:08:08.892Z,4.40
2022-12-03T22:10:36.222Z,4.50
2022-12-03T22:13:03.022Z,4.50
2022-12-03T22:15:29.748Z,4.50
2022-12-03T22:17:56.333Z,4.50
2022-12-03T22:20:22.979Z,4.50
2022-12-03T22:22:49.646Z,4.50
2022-12-03T22:25:16.329Z,4.50
2022-12-03T22:27:42.997Z,4.50
2022-12-03T22:30:09.789Z,4.60
2022-12-03T22:32:36.370Z,4.50
2022-12-03T22:35:03.208Z,4.60
2022-12-03T22:37:29.880Z,4.60
2022-12-03T22:39:56.815Z,4.60
2022-12-03T22:42:23.716Z,4.60
2022-12-03T22:44:50.307Z,4.60
2022-12-03T22:47:16.889Z,4.60
2022-12-03T22:49:43.449Z,4.60
2022-12-03T22:52:10.061Z,4.60
2022-12-03T22:54:36.727Z,4.70
2022-12-03T22:57:03.418Z,4.70
2022-12-03T22:59:30.022Z,4.70
2022-12-03T23:01:56.667Z,4.70
2022-12-03T23:04:23.240Z,4.70
2022-12-03T23:06:49.806Z,4.70
2022-12-03T23:09:16.462Z,4.70
2022-12-03T23:11:45.215Z,4.70
2022-12-03T23:14:12.549Z,4.70
2022-12-03T23:16:40.313Z,4.70
2022-12-03T23:19:07.094Z,4.70
2022-12-03T23:21:35.237Z,4.70
2022-12-03T23:24:03.596Z,4.70
2022-12-03T23:26:30.365Z,4.70
2022-12-03T23:28:57.053Z,4.70
2022-12-03T23:31:29.902Z,4.70
2022-12-03T23:33:57.650Z,4.60
2022-12-03T23:36:25.719Z,4.60
2022-12-03T23:38:52.367Z,4.60
2022-12-03T23:41:22.042Z,4.60
2022-12-03T23:43:49.124Z,4.60
2022-12-03T23:46:22.684Z,4.60
2022-12-03T23:48:49.789Z,4.60
2022-12-03T23:51:19.699Z,4.60
2022-12-03T23:53:46.643Z,4.60
2022-12-03T23:56:16.487Z,4.60
2022-12-03T23:58:44.313Z,4.60
